Weather reports worldwide

Advertisment
Ile du Levant, France (7678): temperature & dewpoint: 10.12.2019 03:00:00 - 16.12.2019 03:00:00 (CET)Ile du Levant, France (7678): wind speed & gusts: 10.12.2019 03:00:00 - 16.12.2019 03:00:00 (CET)Ile du Levant, France (7678): wind direction: 10.12.2019 03:00:00 - 16.12.2019 03:00:00 (CET)Ile du Levant, France (7678): reduced air pressure: 10.12.2019 03:00:00 - 16.12.2019 03:00:00 (CET)Ile du Levant, France (7678): sunshine duration: 10.12.2019 03:00:00 - 16.12.2019 03:00:00 (CET)Ile du Levant, France (7678): precipitation: 10.12.2019 03:00:00 - 16.12.2019 03:00:00 (CET)
Date & Time tt [°C] td [°C] ff [km/h] ff [kn] fx [km/h] fx [kn] dd ppp [hPa] sd [min] rr [mm]
16.12.2019 03:00:00 - - - - - - - - - -
16.12.2019 02:00:00 13,3 12,5 16 9 31 17 E 1016,7 0 0,0
16.12.2019 01:00:00 13,1 12,2 13 7 28 15 ESE 1016,6 0 -
16.12.2019 00:00:00 13,3 12,2 16 9 29 16 ESE 1016,8 0 0,0
15.12.2019 23:00:00 13,5 12,2 15 8 26 14 ESE 1016,5 0 0,0
15.12.2019 22:00:00 13,0 11,4 16 9 26 14 SE 1016,5 0 0,0
15.12.2019 21:00:00 13,1 11,3 15 8 24 13 SE 1016,4 0 0,0
15.12.2019 20:00:00 13,2 11,6 11 6 18 10 SE 1016,1 0 0,0
15.12.2019 19:00:00 12,9 11,3 9 5 16 9 SSE 1015,7 0 -
15.12.2019 18:00:00 13,2 11,6 8 4 15 8 S 1015,1 0 0,0
15.12.2019 17:00:00 13,5 11,5 8 4 18 10 SSW 1014,7 6 0,0
15.12.2019 16:00:00 14,1 11,8 8 4 22 12 S 1014,5 30 0,0
15.12.2019 15:00:00 15,1 12,0 11 6 24 13 SSW 1014,3 48 0,0
15.12.2019 14:00:00 15,2 12,1 11 6 26 14 SSW 1014,3 48 0,0
15.12.2019 13:00:00 15,6 12,7 16 9 28 15 SSW 1014,3 60 -
15.12.2019 12:00:00 15,3 12,1 16 9 28 15 SW 1014,3 60 0,0
15.12.2019 11:00:00 15,4 12,3 16 9 29 16 SW 1014,5 60 0,0
15.12.2019 10:00:00 14,0 12,2 8 4 18 10 W 1013,8 60 0,0
15.12.2019 09:00:00 12,5 11,2 9 5 22 12 NW 1013,4 36 0,0
15.12.2019 08:00:00 13,0 11,7 13 7 22 12 WSW 1012,9 0 0,0
15.12.2019 07:00:00 12,8 10,2 15 8 26 14 W 1012,3 0 -
15.12.2019 06:00:00 12,9 11,0 18 10 31 17 W 1011,8 0 0,0
15.12.2019 05:00:00 13,0 11,1 24 13 37 20 W 1011,9 0 0,0
15.12.2019 04:00:00 13,8 12,2 28 15 41 22 W 1012,3 0 0,0
15.12.2019 03:00:00 13,7 12,1 26 14 42 23 W 1012,4 0 0,0
15.12.2019 02:00:00 13,9 11,8 26 14 48 26 W 1012,3 0 0,0
15.12.2019 01:00:00 14,0 11,7 31 17 52 28 W 1012,2 0 -
15.12.2019 00:00:00 14,0 11,5 29 16 42 23 W 1012,3 0 0,0
14.12.2019 23:00:00 14,4 11,4 28 15 41 22 W 1011,7 0 0,0
14.12.2019 22:00:00 14,0 10,0 18 10 42 23 W 1011,1 0 0,0
14.12.2019 21:00:00 14,5 10,1 29 16 44 24 W 1010,4 0 0,0
14.12.2019 20:00:00 14,4 10,2 31 17 46 25 WNW 1010,6 0 0,0
14.12.2019 19:00:00 14,7 11,3 34 18 63 34 W 1010,8 0 -
14.12.2019 18:00:00 14,9 11,5 46 25 72 39 W 1009,9 0 0,0
14.12.2019 17:00:00 15,4 11,0 48 26 76 41 W 1009,7 42 0,0
14.12.2019 16:00:00 16,0 11,0 52 28 78 42 W 1008,3 60 0,0
14.12.2019 15:00:00 16,2 10,9 50 27 72 39 W 1008,2 60 0,0
14.12.2019 14:00:00 16,0 11,6 52 28 83 45 W 1007,6 60 0,0
14.12.2019 13:00:00 15,9 11,7 61 33 87 47 W 1007,0 60 -
14.12.2019 12:00:00 15,4 11,4 59 32 87 47 W 1006,3 60 0,0
14.12.2019 11:00:00 15,1 11,1 57 31 87 47 W 1006,3 60 0,0
14.12.2019 10:00:00 14,3 11,3 61 33 96 52 W 1004,8 60 0,0
14.12.2019 09:00:00 13,6 10,6 61 33 98 53 W 1003,4 54 0,0
14.12.2019 08:00:00 13,2 9,6 65 35 93 50 W 1002,7 0 0,0
14.12.2019 07:00:00 12,7 9,5 59 32 89 48 W 1002,3 0 -
14.12.2019 06:00:00 12,0 9,7 55 30 81 44 W 1001,9 0 0,0
14.12.2019 05:00:00 10,4 8,3 37 20 61 33 WNW 1002,3 0 0,0
14.12.2019 04:00:00 9,6 6,3 48 26 68 37 WNW 1002,1 0 0,0
14.12.2019 03:00:00 10,4 6,2 52 28 74 40 WNW 1002,0 0 0,0
14.12.2019 02:00:00 10,7 5,4 48 26 76 41 WNW 1001,7 0 0,0
14.12.2019 01:00:00 10,7 3,9 57 31 81 44 WNW 1000,9 0 -
14.12.2019 00:00:00 10,9 4,1 54 29 78 42 WNW 1001,3 0 0,0
13.12.2019 23:00:00 11,3 3,8 54 29 74 40 WNW 1001,0 0 0,0
13.12.2019 22:00:00 11,5 3,0 55 30 81 44 W 1000,4 0 0,0
13.12.2019 21:00:00 12,3 2,4 50 27 74 40 WNW 999,8 0 0,0
13.12.2019 20:00:00 12,1 0,8 50 27 80 43 WNW 998,8 0 0,0
13.12.2019 19:00:00 12,2 2,9 52 28 80 43 WNW 997,7 0 -
13.12.2019 18:00:00 12,4 4,8 57 31 80 43 WNW 996,7 0 0,0
13.12.2019 17:00:00 12,0 5,2 54 29 76 41 W 995,3 12 0,0
13.12.2019 16:00:00 12,2 4,4 57 31 100 54 WNW 994,4 42 0,0
13.12.2019 15:00:00 11,7 4,4 72 39 104 56 WNW 993,0 24 0,0
13.12.2019 14:00:00 13,0 4,4 61 33 89 48 WNW 992,1 60 0,0
13.12.2019 13:00:00 13,7 8,3 50 27 89 48 WNW 992,0 48 -
13.12.2019 12:00:00 13,9 10,7 59 32 85 46 W 990,9 60 0,0
13.12.2019 11:00:00 13,5 10,7 44 24 119 64 WNW 990,8 24 6,0
13.12.2019 10:00:00 14,7 12,2 80 43 119 64 W 987,8 6 0,4
13.12.2019 09:00:00 13,8 11,1 55 30 91 49 W 988,8 0 0,2
13.12.2019 08:00:00 12,3 11,0 52 28 81 44 WSW 990,2 0 0,6
13.12.2019 07:00:00 12,2 11,7 46 25 67 36 W 992,0 0 -
13.12.2019 06:00:00 10,1 9,2 24 13 35 19 W 993,5 0 0,4
13.12.2019 05:00:00 9,9 8,2 13 7 22 12 W 994,8 0 0,0
13.12.2019 04:00:00 9,2 7,5 8 4 13 7 SW 995,9 0 0,0
13.12.2019 03:00:00 8,6 6,9 8 4 18 10 NE 997,2 0 0,0
13.12.2019 02:00:00 8,5 6,5 11 6 22 12 ENE 997,4 0 0,0
13.12.2019 01:00:00 10,8 7,7 8 4 28 15 W 998,1 0 -
13.12.2019 00:00:00 11,3 8,0 16 9 41 22 SW 999,5 0 0,0
12.12.2019 23:00:00 9,8 7,4 8 4 16 9 WSW 1000,6 0 0,2
12.12.2019 22:00:00 9,9 5,3 9 5 28 15 W 1001,9 0 0,0
12.12.2019 21:00:00 9,9 4,3 18 10 39 21 W 1002,9 0 0,0
12.12.2019 20:00:00 9,7 3,2 22 12 46 25 WNW 1003,8 0 0,0
12.12.2019 19:00:00 9,9 1,8 34 18 55 30 W 1004,3 0 -
12.12.2019 18:00:00 10,0 0,6 34 18 55 30 W 1004,8 0 0,0
12.12.2019 17:00:00 10,2 1,0 42 23 61 33 WNW 1005,4 36 0,0
12.12.2019 16:00:00 10,3 -0,8 44 24 70 38 NW 1005,9 60 0,0
12.12.2019 15:00:00 10,4 -0,4 48 26 76 41 WNW 1006,1 60 0,0
12.12.2019 14:00:00 10,0 -0,5 55 30 80 43 WNW 1006,9 60 0,0
12.12.2019 13:00:00 9,5 0,1 57 31 83 45 WNW 1007,3 48 -
12.12.2019 12:00:00 9,5 0,1 61 33 83 45 W 1008,0 60 0,0
12.12.2019 11:00:00 9,6 -0,9 48 26 74 40 W 1008,8 60 0,0
12.12.2019 10:00:00 9,2 -2,4 50 27 80 43 WNW 1008,3 60 0,0
12.12.2019 09:00:00 8,6 -2,4 52 28 80 43 WNW 1008,2 54 0,0
12.12.2019 08:00:00 8,3 -0,7 50 27 81 44 WNW 1008,0 0 0,0
12.12.2019 07:00:00 8,7 -0,6 48 26 70 38 WNW 1007,7 0 -
12.12.2019 06:00:00 8,6 1,9 44 24 72 39 WNW 1007,7 0 0,0
12.12.2019 05:00:00 8,8 2,1 52 28 80 43 WNW 1007,1 0 0,0
12.12.2019 04:00:00 8,8 3,2 42 23 68 37 WNW 1007,3 0 0,0
12.12.2019 03:00:00 9,2 3,4 48 26 74 40 WNW 1007,8 0 0,0
12.12.2019 02:00:00 9,6 2,2 50 27 81 44 WNW 1007,6 0 0,0
12.12.2019 01:00:00 9,9 1,3 59 32 87 47 WNW 1008,2 0 -
12.12.2019 00:00:00 10,4 1,2 55 30 85 46 WNW 1008,3 0 0,0
11.12.2019 23:00:00 10,1 5,1 50 27 76 41 WNW 1008,4 0 0,0
11.12.2019 22:00:00 10,2 5,0 48 26 74 40 WNW 1008,9 0 0,0
11.12.2019 21:00:00 11,1 4,8 44 24 65 35 WNW 1009,3 0 0,0
11.12.2019 20:00:00 9,7 4,7 46 25 67 36 WNW 1010,7 0 0,0
11.12.2019 19:00:00 9,9 4,7 34 18 44 24 WNW 1011,4 0 -
11.12.2019 18:00:00 10,9 4,1 34 18 44 24 NW 1012,3 0 0,0
11.12.2019 17:00:00 11,5 7,0 26 14 35 19 WNW 1012,4 0 0,0
11.12.2019 16:00:00 11,5 6,4 21 11 31 17 WNW 1012,7 0 0,0
11.12.2019 15:00:00 11,2 5,3 15 8 24 13 W 1013,3 0 0,0
11.12.2019 14:00:00 12,4 6,9 13 7 22 12 SW 1013,9 12 0,0
11.12.2019 13:00:00 12,7 7,8 9 5 16 9 WSW 1014,9 6 -
11.12.2019 12:00:00 12,8 7,0 5 3 11 6 WSW 1015,8 0 0,0
11.12.2019 11:00:00 12,6 8,1 4 2 9 5 W 1016,9 12 0,0
11.12.2019 10:00:00 12,1 7,6 4 2 5 3 WNW 1017,4 6 0,0
11.12.2019 09:00:00 11,5 7,6 4 2 8 4 NW 1017,8 48 0,0
11.12.2019 08:00:00 10,8 8,4 5 3 8 4 W 1018,1 0 0,0
11.12.2019 07:00:00 10,9 8,5 4 2 5 3 WNW 1018,2 0 -
11.12.2019 06:00:00 11,1 8,8 4 2 9 5 WNW 1018,9 0 0,0
11.12.2019 05:00:00 11,1 5,2 0 0 8 4 N 1019,1 0 0,0
11.12.2019 04:00:00 11,5 5,6 4 2 8 4 E 1019,6 0 0,0
11.12.2019 03:00:00 11,5 6,0 5 3 9 5 ENE 1020,0 0 0,0
11.12.2019 02:00:00 11,9 4,8 4 2 9 5 E 1020,2 0 0,0
11.12.2019 01:00:00 11,0 5,3 8 4 11 6 ENE 1020,9 0 -
11.12.2019 00:00:00 11,2 4,9 8 4 16 9 E 1021,0 0 0,0
10.12.2019 23:00:00 12,8 1,1 8 4 11 6 WSW 1020,6 0 0,0
10.12.2019 22:00:00 13,3 0,6 8 4 21 11 SSW 1020,1 0 0,0
10.12.2019 21:00:00 12,7 3,4 13 7 24 13 SSE 1019,8 0 0,0
10.12.2019 20:00:00 12,5 3,2 9 5 13 7 S 1019,9 0 0,0
10.12.2019 19:00:00 12,5 3,2 9 5 16 9 N 1019,5 0 -
10.12.2019 18:00:00 12,6 -0,7 11 6 18 10 NW 1019,3 0 0,0
10.12.2019 17:00:00 13,0 2,5 9 5 15 8 SW 1018,5 42 0,0
10.12.2019 16:00:00 15,1 1,9 8 4 16 9 SW 1017,9 60 0,2
10.12.2019 15:00:00 16,1 4,5 8 4 16 9 SW 1017,6 60 0,0
10.12.2019 14:00:00 17,0 3,3 9 5 21 11 SE 1017,3 60 0,0
10.12.2019 13:00:00 16,4 -0,4 11 6 18 10 NE 1017,6 60 -
10.12.2019 12:00:00 14,8 2,3 11 6 22 12 N 1017,3 60 0,0
10.12.2019 11:00:00 13,8 1,4 15 8 28 15 NNE 1017,4 60 0,0
10.12.2019 10:00:00 11,8 0,8 13 7 37 20 N 1016,6 60 0,0
10.12.2019 09:00:00 10,7 -0,5 26 14 48 26 NNW 1016,2 60 0,0
10.12.2019 08:00:00 11,3 -1,2 29 16 54 29 NNW 1015,4 0 0,0
10.12.2019 07:00:00 10,9 -0,6 34 18 55 30 NNW 1014,8 0 -
10.12.2019 06:00:00 10,8 0,2 26 14 54 29 NNW 1014,1 0 0,0
10.12.2019 05:00:00 10,6 1,1 29 16 57 31 NNW 1013,5 0 0,0
10.12.2019 04:00:00 10,6 0,3 34 18 55 30 NNW 1013,2 0 0,0
10.12.2019 03:00:00 10,8 1,3 31 17 70 38 NNW 1012,4 0 0,0

tt = temperature
td = dewpoint
ff = wind speed
fx = gusts
dd = wind direction
ppp = reduced air pressure
sd = sunshine duration
rr = precipitation

Next stations